Time;durP1;ratioP1;P1;durP2;ratioP2;P2;SDS_P1;SDS_P2;PMS_P1;PMS_P2;Temp;Humidity;BMP_temperature;BMP_pressure;BME280_temperature;BME280_humidity;BME280_pressure;Samples;Min_cycle;Max_cycle;Signal;HPM_P1;HPM_P2
2022/06/21 00:01:02;;;;;;;;;;;;;;;8.44;44.99;95543.19;5065852;28;20490;-63
2022/06/21 00:03:28;;;;;;;;;;;;;;;8.37;45.11;95555.47;5060037;28;20017;-63
2022/06/21 00:05:53;;;;;;;;;;;;;;;8.34;44.92;95552.31;5063073;28;20000;-62
2022/06/21 00:08:19;;;;;;;;;;;;;;;8.26;45.93;95551.31;5045287;28;19984;-64
2022/06/21 00:10:45;;;;;;;;;;;;;;;8.20;45.72;95557.31;5064807;28;19999;-64
2022/06/21 00:13:11;;;;;;;;;;;;;;;8.25;45.73;95554.97;5065705;28;20004;-64
2022/06/21 00:15:36;;;;;;;;;;;;;;;8.23;45.93;95564.09;5066137;28;20193;-64
2022/06/21 00:18:02;;;;;;;;;;;;;;;8.23;45.84;95561.44;5065556;28;20360;-64
2022/06/21 00:20:27;;;;;;;;;;;;;;;8.18;45.45;95554.81;5061978;28;20071;-65
2022/06/21 00:22:52;;;;;;;;;;;;;;;8.09;45.16;95560.28;5074114;28;20031;-64
2022/06/21 00:25:20;;;;;;;;;;;;;;;8.03;46.11;95551.97;5057243;28;19989;-64
2022/06/21 00:27:45;;;;;;;;;;;;;;;8.05;45.64;95560.59;5066290;28;19969;-64
2022/06/21 00:30:11;;;;;;;;;;;;;;;8.09;45.16;95549.66;5065800;28;19989;-64
2022/06/21 00:32:36;;;;;;;;;;;;;;;7.97;45.62;95551.78;5081409;28;19973;-65
2022/06/21 00:35:02;;;;;;;;;;;;;;;7.90;44.65;95546.31;5066072;28;19991;-63
2022/06/21 00:37:27;;;;;;;;;;;;;;;7.95;45.22;95553.78;5065385;28;20005;-65
2022/06/21 00:39:52;;;;;;;;;;;;;;;8.12;45.14;95555.47;5065921;28;19981;-65
2022/06/21 00:42:19;;;;;;;;;;;;;;;8.03;45.53;95551.97;5064755;28;19998;-64
2022/06/21 00:44:56;;;;;;;;;;;;;;;7.92;46.26;95560.22;5039664;28;19994;-65
2022/06/21 00:47:28;;;;;;;;;;;;;;;7.89;45.35;95561.38;5064240;28;19992;-65
2022/06/21 00:50:01;;;;;;;;;;;;;;;7.86;46.10;95553.75;5045114;28;19989;-66
2022/06/21 00:52:46;;;;;;;;;;;;;;;7.87;46.38;95557.25;5063796;28;20546;-65
2022/06/21 00:55:40;;;;;;;;;;;;;;;7.88;46.35;95553.59;5062914;28;19988;-65
2022/06/21 00:58:06;;;;;;;;;;;;;;;7.76;46.16;95547.75;5007270;28;19989;-65
2022/06/21 01:00:33;;;;;;;;;;;;;;;7.73;46.65;95546.25;5047673;28;19984;-62
2022/06/21 01:02:59;;;;;;;;;;;;;;;7.67;47.04;95541.59;5059856;28;20071;-60
2022/06/21 01:05:25;;;;;;;;;;;;;;;7.74;47.12;95539.94;5083841;28;20178;-59
2022/06/21 01:07:51;;;;;;;;;;;;;;;7.87;46.33;95539.53;5059271;28;20106;-62
2022/06/21 01:10:16;;;;;;;;;;;;;;;7.82;46.43;95539.16;5064205;28;20725;-62
2022/06/21 01:12:52;;;;;;;;;;;;;;;7.75;46.65;95536.31;5039249;28;19970;-63
2022/06/21 01:15:21;;;;;;;;;;;;;;;7.73;46.16;95551.56;5045742;28;20003;-62
2022/06/21 01:17:46;;;;;;;;;;;;;;;7.70;46.75;95540.44;5058369;28;20028;-64
2022/06/21 01:20:12;;;;;;;;;;;;;;;7.68;46.97;95537.94;5062777;28;20077;-63
2022/06/21 01:22:50;;;;;;;;;;;;;;;7.69;46.96;95539.63;5043444;28;20812;-63
2022/06/21 01:25:15;;;;;;;;;;;;;;;7.73;47.01;95534.81;5064505;28;20453;-63
2022/06/21 01:27:40;;;;;;;;;;;;;;;7.66;45.92;95538.09;5066494;28;20040;-61
2022/06/21 01:30:06;;;;;;;;;;;;;;;7.62;46.57;95543.91;5063464;28;20096;-59
2022/06/21 01:32:31;;;;;;;;;;;;;;;7.65;46.55;95538.28;5064665;28;19972;-59
2022/06/21 01:34:56;;;;;;;;;;;;;;;7.56;47.15;95553.31;5067086;28;20118;-61
2022/06/21 01:37:26;;;;;;;;;;;;;;;7.51;47.09;95540.53;5067164;28;20130;-60
2022/06/21 01:39:54;;;;;;;;;;;;;;;7.51;46.88;95527.31;5046056;28;20038;-60
2022/06/21 01:42:30;;;;;;;;;;;;;;;7.54;46.77;95528.78;5057538;28;20147;-62
2022/06/21 01:44:56;;;;;;;;;;;;;;;7.05;49.26;95540.03;5041765;28;19983;-63
2022/06/21 01:47:22;;;;;;;;;;;;;;;6.87;50.56;95551.50;5044774;28;20445;-59
2022/06/21 01:49:49;;;;;;;;;;;;;;;7.08;49.23;95532.59;5047468;28;20379;-60
2022/06/21 01:52:16;;;;;;;;;;;;;;;7.18;48.49;95516.59;5043306;28;19973;-62
2022/06/21 01:54:42;;;;;;;;;;;;;;;6.92;49.27;95538.63;5045130;28;20067;-60
2022/06/21 01:57:08;;;;;;;;;;;;;;;6.25;51.88;95553.16;5044005;28;20441;-62
2022/06/21 01:59:34;;;;;;;;;;;;;;;6.84;49.72;95535.94;5046151;28;19965;-59
2022/06/21 02:02:04;;;;;;;;;;;;;;;7.06;48.97;95534.56;5034622;28;20472;-60
2022/06/21 02:04:31;;;;;;;;;;;;;;;7.21;47.55;95532.16;5038986;28;19976;-60
2022/06/21 02:06:58;;;;;;;;;;;;;;;7.31;47.33;95528.56;5048665;28;20001;-60
2022/06/21 02:09:24;;;;;;;;;;;;;;;7.32;47.24;95522.28;5047564;28;20405;-59
2022/06/21 02:11:52;;;;;;;;;;;;;;;7.30;46.92;95516.28;5046239;28;19972;-62
2022/06/21 02:14:30;;;;;;;;;;;;;;;7.31;47.25;95513.47;5047279;28;19993;-60
2022/06/21 02:17:06;;;;;;;;;;;;;;;7.30;47.08;95503.88;5035704;28;19965;-58
2022/06/21 02:19:50;;;;;;;;;;;;;;;7.26;47.49;95494.59;5038059;28;19973;-59
2022/06/21 02:22:17;;;;;;;;;;;;;;;7.12;49.12;95507.47;5045083;28;19989;-63
2022/06/21 02:24:42;;;;;;;;;;;;;;;6.65;50.56;95511.34;5041468;28;20563;-60
2022/06/21 02:27:08;;;;;;;;;;;;;;;6.77;50.42;95515.38;5037753;28;20000;-59
2022/06/21 02:29:33;;;;;;;;;;;;;;;6.91;49.79;95514.97;5031851;28;20096;-60
2022/06/21 02:31:59;;;;;;;;;;;;;;;7.09;48.83;95513.06;5043623;28;20341;-63
2022/06/21 02:34:33;;;;;;;;;;;;;;;7.19;48.55;95506.81;5040918;28;20138;-60
2022/06/21 02:36:59;;;;;;;;;;;;;;;7.30;48.43;95498.59;5039344;28;19996;-65
2022/06/21 02:39:26;;;;;;;;;;;;;;;7.26;48.86;95499.91;5036801;28;19976;-59
2022/06/21 02:41:52;;;;;;;;;;;;;;;6.97;50.14;95501.13;5044025;28;19993;-63
2022/06/21 02:44:19;;;;;;;;;;;;;;;7.07;51.00;95501.00;5042036;28;19977;-63
2022/06/21 02:46:45;;;;;;;;;;;;;;;7.11;49.81;95499.69;5040853;28;20550;-63
2022/06/21 02:49:34;;;;;;;;;;;;;;;7.29;49.23;95499.59;5042184;28;19989;-63
2022/06/21 02:52:11;;;;;;;;;;;;;;;7.37;48.77;95493.47;5040974;28;20356;-63
2022/06/21 02:54:39;;;;;;;;;;;;;;;7.40;48.06;95496.66;5041514;28;19993;-63
2022/06/21 02:57:08;;;;;;;;;;;;;;;7.41;48.15;95495.66;5039964;28;20355;-63
2022/06/21 02:59:34;;;;;;;;;;;;;;;7.42;48.27;95491.19;5040140;28;20130;-63
2022/06/21 03:02:00;;;;;;;;;;;;;;;7.48;48.04;95487.88;5042548;28;20001;-63
2022/06/21 03:04:32;;;;;;;;;;;;;;;7.53;47.64;95482.09;5032643;28;20493;-64
2022/06/21 03:06:57;;;;;;;;;;;;;;;7.46;47.46;95470.50;5042464;28;20517;-64
2022/06/21 03:09:22;;;;;;;;;;;;;;;7.29;48.79;95478.41;5046471;28;20043;-64
2022/06/21 03:11:49;;;;;;;;;;;;;;;7.19;49.73;95477.69;5047112;28;19999;-64
2022/06/21 03:14:15;;;;;;;;;;;;;;;7.06;50.06;95492.22;5047824;28;20300;-64
2022/06/21 03:16:40;;;;;;;;;;;;;;;7.30;49.29;95490.66;5048834;28;20361;-64
2022/06/21 03:19:07;;;;;;;;;;;;;;;7.44;48.61;95486.53;5047459;28;19989;-64
2022/06/21 03:21:33;;;;;;;;;;;;;;;7.51;48.02;95481.44;5046541;28;20029;-64
2022/06/21 03:23:58;;;;;;;;;;;;;;;7.57;48.31;95483.44;5047165;28;19969;-64
2022/06/21 03:26:26;;;;;;;;;;;;;;;7.61;47.67;95476.81;5047913;28;20028;-64
2022/06/21 03:28:51;;;;;;;;;;;;;;;7.63;47.26;95477.50;5046733;28;19969;-64
2022/06/21 03:31:21;;;;;;;;;;;;;;;7.68;47.15;95479.63;5048465;28;19988;-65
2022/06/21 03:33:47;;;;;;;;;;;;;;;7.74;47.19;95484.31;5047639;28;19996;-65
2022/06/21 03:36:13;;;;;;;;;;;;;;;7.77;47.32;95473.41;5049497;28;20172;-64
2022/06/21 03:38:39;;;;;;;;;;;;;;;7.62;48.36;95472.38;5067710;28;19985;-65
2022/06/21 03:43:49;;;;;;;;;;;;;;;7.73;47.56;95472.06;5052863;28;20022;-64
2022/06/21 03:46:16;;;;;;;;;;;;;;;7.81;47.45;95470.41;5050109;28;20046;-64
2022/06/21 03:48:46;;;;;;;;;;;;;;;7.76;47.33;95471.69;5060802;28;20498;-64
2022/06/21 03:51:12;;;;;;;;;;;;;;;7.77;47.48;95473.41;5049882;28;20414;-65
2022/06/21 03:53:43;;;;;;;;;;;;;;;7.39;49.15;95472.97;5050370;28;19989;-61
2022/06/21 03:56:17;;;;;;;;;;;;;;;7.62;48.76;95485.63;5062438;28;20350;-64
2022/06/21 03:58:50;;;;;;;;;;;;;;;7.80;47.98;95477.56;5068011;28;19991;-64
2022/06/21 04:01:22;;;;;;;;;;;;;;;7.60;48.88;95479.63;5063734;28;20221;-64
2022/06/21 04:03:50;;;;;;;;;;;;;;;7.79;47.87;95476.72;5059210;28;19980;-64
2022/06/21 04:06:27;;;;;;;;;;;;;;;8.03;47.70;95477.72;5067018;28;20103;-65
2022/06/21 04:09:13;;;;;;;;;;;;;;;8.22;47.49;95488.16;5055930;28;19965;-65
2022/06/21 04:11:43;;;;;;;;;;;;;;;8.41;47.01;95485.19;5056294;28;20569;-65
2022/06/21 04:14:25;;;;;;;;;;;;;;;8.51;46.36;95489.47;5049803;28;20014;-64
2022/06/21 04:17:10;;;;;;;;;;;;;;;8.60;46.31;95485.81;5068259;28;19999;-61
2022/06/21 04:19:52;;;;;;;;;;;;;;;8.68;46.85;95490.28;5070428;28;19972;-60
2022/06/21 04:22:29;;;;;;;;;;;;;;;8.62;47.60;95493.59;5069799;28;20083;-59
2022/06/21 04:24:55;;;;;;;;;;;;;;;8.70;46.75;95493.56;5064779;28;19973;-60
2022/06/21 04:27:38;;;;;;;;;;;;;;;8.88;46.33;95492.56;5070818;28;20032;-59
2022/06/21 04:30:08;;;;;;;;;;;;;;;9.10;46.55;95491.00;5066661;28;19989;-60
2022/06/21 04:32:36;;;;;;;;;;;;;;;9.21;46.28;95476.53;5068361;28;20408;-59
2022/06/21 04:35:03;;;;;;;;;;;;;;;9.30;46.63;95477.31;5034179;28;20049;-60
2022/06/21 04:37:48;;;;;;;;;;;;;;;9.47;46.47;95480.72;5065476;28;20023;-60
2022/06/21 04:40:13;;;;;;;;;;;;;;;9.51;46.24;95474.06;5044325;28;19988;-60
2022/06/21 04:42:54;;;;;;;;;;;;;;;9.54;46.34;95481.69;5068619;28;20065;-59
2022/06/21 04:45:28;;;;;;;;;;;;;;;9.73;46.22;95487.56;5057157;28;19985;-59
2022/06/21 04:47:59;;;;;;;;;;;;;;;9.75;45.81;95490.84;5063586;28;20014;-60
2022/06/21 04:50:30;;;;;;;;;;;;;;;10.02;46.01;95491.34;5051898;28;20083;-58
2022/06/21 04:53:03;;;;;;;;;;;;;;;10.05;45.30;95483.03;5061170;28;19969;-59
2022/06/21 04:55:30;;;;;;;;;;;;;;;10.33;45.36;95482.50;5071906;28;19969;-61
2022/06/21 04:57:56;;;;;;;;;;;;;;;10.50;44.96;95479.66;5042095;28;19988;-63
2022/06/21 05:00:21;;;;;;;;;;;;;;;10.59;44.48;95475.09;5065752;28;20369;-61
2022/06/21 05:02:50;;;;;;;;;;;;;;;10.82;44.77;95476.88;5080361;28;19988;-62
2022/06/21 05:05:19;;;;;;;;;;;;;;;11.04;44.43;95482.28;5078212;28;19989;-62
2022/06/21 05:07:46;;;;;;;;;;;;;;;11.26;44.36;95472.56;5049295;28;19977;-63
2022/06/21 05:10:15;;;;;;;;;;;;;;;11.44;43.83;95476.66;5062179;28;20305;-64
2022/06/21 05:12:41;;;;;;;;;;;;;;;11.38;43.86;95464.91;5040035;28;20387;-61
2022/06/21 05:15:09;;;;;;;;;;;;;;;11.67;43.86;95467.69;5068052;28;19989;-62
2022/06/21 05:17:34;;;;;;;;;;;;;;;11.85;43.30;95468.09;5066904;28;19989;-64
2022/06/21 05:20:01;;;;;;;;;;;;;;;12.02;43.46;95473.19;5059673;28;20400;-61
2022/06/21 05:22:35;;;;;;;;;;;;;;;12.19;43.51;95475.59;5057499;28;20191;-64
2022/06/21 05:25:13;;;;;;;;;;;;;;;12.31;43.35;95467.91;5078557;28;20015;-64
2022/06/21 05:27:40;;;;;;;;;;;;;;;12.48;43.07;95468.47;5063095;28;20011;-65
2022/06/21 05:30:08;;;;;;;;;;;;;;;12.64;42.79;95481.53;5070846;28;20019;-61
2022/06/21 05:32:37;;;;;;;;;;;;;;;12.88;42.79;95487.44;5063298;28;19975;-61
2022/06/21 05:35:23;;;;;;;;;;;;;;;13.04;42.14;95485.50;5039623;28;19989;-64
2022/06/21 05:38:04;;;;;;;;;;;;;;;13.23;41.94;95472.44;5046461;28;20002;-65
2022/06/21 05:40:35;;;;;;;;;;;;;;;13.41;41.35;95475.41;5065787;28;19989;-65
2022/06/21 05:43:01;;;;;;;;;;;;;;;13.49;41.57;95492.31;5068683;28;19996;-65
2022/06/21 05:45:28;;;;;;;;;;;;;;;13.67;41.21;95481.06;5057358;28;19995;-65
2022/06/21 05:47:55;;;;;;;;;;;;;;;13.88;40.97;95482.78;5064651;28;19979;-65
2022/06/21 05:50:22;;;;;;;;;;;;;;;13.82;39.98;95479.03;5063343;28;19996;-65
2022/06/21 05:52:51;;;;;;;;;;;;;;;13.56;40.39;95487.78;5062047;28;19983;-66
2022/06/21 05:55:27;;;;;;;;;;;;;;;13.24;40.42;95485.63;5048322;28;20717;-66
2022/06/21 05:57:54;;;;;;;;;;;;;;;13.35;40.36;95492.25;5072985;28;20460;-65
2022/06/21 06:00:25;;;;;;;;;;;;;;;13.50;39.87;95488.59;5052631;28;19984;-62
2022/06/21 06:02:51;;;;;;;;;;;;;;;13.66;39.68;95496.25;5058249;28;19992;-62
2022/06/21 06:05:17;;;;;;;;;;;;;;;13.43;40.15;95500.09;5075620;28;19986;-62
2022/06/21 06:07:46;;;;;;;;;;;;;;;13.98;38.82;95506.47;5055358;28;19961;-62
2022/06/21 06:10:11;;;;;;;;;;;;;;;13.94;38.96;95511.41;5053927;28;19994;-61
2022/06/21 06:12:37;;;;;;;;;;;;;;;13.97;38.85;95512.03;5057746;28;19962;-62
2022/06/21 06:15:32;;;;;;;;;;;;;;;14.19;38.71;95502.81;5043827;28;19987;-62
2022/06/21 06:17:59;;;;;;;;;;;;;;;14.53;37.99;95496.63;5009550;28;20523;-61
2022/06/21 06:20:36;;;;;;;;;;;;;;;14.39;38.19;95512.72;5059748;28;20677;-62
2022/06/21 06:23:20;;;;;;;;;;;;;;;14.67;37.40;95503.66;5060825;28;19989;-62
2022/06/21 06:25:45;;;;;;;;;;;;;;;14.43;38.23;95507.75;5059674;28;19981;-65
2022/06/21 06:28:31;;;;;;;;;;;;;;;14.69;37.69;95506.13;5060094;28;20075;-65
2022/06/21 06:31:15;;;;;;;;;;;;;;;14.85;37.12;95510.25;5056902;28;19990;-65
2022/06/21 06:33:40;;;;;;;;;;;;;;;14.97;37.06;95507.78;5039146;28;20004;-65
2022/06/21 06:36:07;;;;;;;;;;;;;;;15.32;36.32;95503.97;5070713;28;19969;-62
2022/06/21 06:38:32;;;;;;;;;;;;;;;15.29;36.33;95504.38;5060617;28;20080;-65
2022/06/21 06:41:08;;;;;;;;;;;;;;;15.42;36.19;95507.03;5047913;28;20081;-64
2022/06/21 06:43:43;;;;;;;;;;;;;;;15.41;36.00;95504.56;5075747;28;20398;-62
2022/06/21 06:46:10;;;;;;;;;;;;;;;15.29;36.05;95504.38;5047200;28;20454;-64
2022/06/21 06:48:36;;;;;;;;;;;;;;;15.41;36.00;95502.72;5062623;28;19983;-62
2022/06/21 06:51:22;;;;;;;;;;;;;;;15.71;35.31;95507.56;5068995;28;19981;-65
2022/06/21 06:53:50;;;;;;;;;;;;;;;15.70;35.19;95519.34;5019874;28;19990;-61
2022/06/21 06:56:16;;;;;;;;;;;;;;;15.99;34.78;95509.09;5076359;28;19954;-65
2022/06/21 06:58:51;;;;;;;;;;;;;;;16.08;34.82;95500.78;5056524;28;20274;-62
2022/06/21 07:01:20;;;;;;;;;;;;;;;16.11;34.61;95498.47;5037956;28;20102;-65
2022/06/21 07:04:03;;;;;;;;;;;;;;;16.36;34.08;95502.28;5054888;28;20020;-65
2022/06/21 07:06:49;;;;;;;;;;;;;;;16.21;34.42;95516.78;5056474;28;20004;-62
2022/06/21 07:09:17;;;;;;;;;;;;;;;16.28;34.47;95508.69;5052978;28;19990;-61
2022/06/21 07:11:42;;;;;;;;;;;;;;;16.58;33.90;95507.25;5045817;28;19958;-65
2022/06/21 07:14:11;;;;;;;;;;;;;;;16.63;33.74;95497.50;5047992;28;19984;-65
2022/06/21 07:16:36;;;;;;;;;;;;;;;16.56;33.83;95498.59;5076066;28;19952;-62
2022/06/21 07:19:03;;;;;;;;;;;;;;;16.71;33.67;95509.84;5035940;28;19978;-62
2022/06/21 07:21:28;;;;;;;;;;;;;;;16.70;33.31;95510.06;5057527;28;20357;-65
2022/06/21 07:23:54;;;;;;;;;;;;;;;16.83;33.32;95499.19;5056673;28;19961;-65
2022/06/21 07:26:23;;;;;;;;;;;;;;;17.26;32.46;95496.72;5059488;28;20579;-65
2022/06/21 07:28:56;;;;;;;;;;;;;;;17.35;32.53;95499.94;5030829;28;19986;-65
2022/06/21 07:31:26;;;;;;;;;;;;;;;17.39;32.07;95498.44;5060039;28;20065;-63
2022/06/21 07:34:10;;;;;;;;;;;;;;;17.59;31.89;95503.59;5039182;28;20230;-62
2022/06/21 07:36:39;;;;;;;;;;;;;;;17.89;31.56;95510.94;5048937;28;19982;-62
2022/06/21 07:39:06;;;;;;;;;;;;;;;17.71;31.96;95519.78;5036794;28;19975;-65
2022/06/21 07:41:33;;;;;;;;;;;;;;;17.65;31.81;95513.44;5062089;28;19978;-66
2022/06/21 07:44:01;;;;;;;;;;;;;;;17.84;31.54;95515.31;5071262;28;20581;-65
2022/06/21 07:46:34;;;;;;;;;;;;;;;18.14;31.37;95514.50;5038556;28;20460;-65
2022/06/21 07:49:02;;;;;;;;;;;;;;;18.22;29.93;95510.69;5054333;28;19967;-65
2022/06/21 07:51:40;;;;;;;;;;;;;;;18.29;30.20;95520.28;5039283;28;19976;-66
2022/06/21 07:54:16;;;;;;;;;;;;;;;18.34;29.83;95513.41;5063655;28;20004;-66
2022/06/21 07:56:43;;;;;;;;;;;;;;;18.05;31.28;95517.53;5060306;28;19947;-66
2022/06/21 07:59:12;;;;;;;;;;;;;;;18.38;29.89;95518.09;5031073;28;20432;-66
2022/06/21 08:07:28;;;;;;;;;;;;;;;19.17;29.00;95494.63;5044199;28;20469;-66
2022/06/21 08:10:02;;;;;;;;;;;;;;;19.45;29.51;95493.06;5049918;28;20220;-66
2022/06/21 08:12:27;;;;;;;;;;;;;;;19.71;28.83;95490.06;5058341;28;19994;-66
2022/06/21 08:14:52;;;;;;;;;;;;;;;19.81;28.01;95497.53;5054205;28;20641;-66
2022/06/21 08:17:23;;;;;;;;;;;;;;;20.03;25.98;95496.91;5062689;28;19966;-66
2022/06/21 08:19:51;;;;;;;;;;;;;;;18.63;27.62;95506.31;5063451;28;20408;-65
2022/06/21 08:22:21;;;;;;;;;;;;;;;18.90;27.56;95489.69;5061722;28;20492;-62
2022/06/21 08:24:52;;;;;;;;;;;;;;;18.99;29.10;95487.47;5059552;28;19971;-66
2022/06/21 08:27:20;;;;;;;;;;;;;;;19.32;28.98;95475.28;5060193;28;19997;-62
2022/06/21 08:29:53;;;;;;;;;;;;;;;19.63;28.40;95466.97;5061967;28;19963;-62
2022/06/21 08:32:27;;;;;;;;;;;;;;;19.92;27.90;95458.06;5056892;28;19980;-65
2022/06/21 08:34:54;;;;;;;;;;;;;;;19.90;27.92;95454.78;5059985;28;20749;-65
2022/06/21 08:37:19;;;;;;;;;;;;;;;19.99;27.90;95445.25;5042193;28;19981;-65
2022/06/21 08:39:44;;;;;;;;;;;;;;;20.05;26.70;95448.84;5058432;28;19938;-63
2022/06/21 08:42:28;;;;;;;;;;;;;;;20.06;27.48;95450.50;5057942;28;20048;-65
2022/06/21 08:48:13;;;;;;;;;;;;;;;20.72;27.00;95449.16;5058092;28;20449;-66
2022/06/21 08:50:39;;;;;;;;;;;;;;;21.21;26.18;95439.56;5044844;28;20072;-66
2022/06/21 08:53:10;;;;;;;;;;;;;;;21.26;26.01;95428.78;5051485;28;19965;-67
2022/06/21 08:55:38;;;;;;;;;;;;;;;21.48;26.22;95419.88;5054234;28;20108;-66
2022/06/21 08:58:26;;;;;;;;;;;;;;;21.97;25.59;95415.50;5058019;28;19971;-66
2022/06/21 09:01:00;;;;;;;;;;;;;;;22.17;24.50;95411.34;5034537;28;19951;-66
2022/06/21 09:03:44;;;;;;;;;;;;;;;22.18;24.53;95405.69;5046722;28;20445;-66
2022/06/21 09:06:38;;;;;;;;;;;;;;;22.14;24.29;95396.44;5059801;28;20397;-66
2022/06/21 09:09:19;;;;;;;;;;;;;;;22.57;23.96;95391.06;5036449;28;20145;-66
2022/06/21 09:11:56;;;;;;;;;;;;;;;22.71;24.09;95386.00;5045688;28;19972;-67
2022/06/21 09:14:32;;;;;;;;;;;;;;;22.43;25.17;95368.19;5052014;28;20357;-67
2022/06/21 09:17:03;;;;;;;;;;;;;;;22.82;24.22;95353.50;5027780;28;19987;-66
2022/06/21 09:19:31;;;;;;;;;;;;;;;22.94;23.09;95339.75;5052319;28;19943;-66
2022/06/21 09:22:15;;;;;;;;;;;;;;;22.74;23.43;95347.50;5048064;28;19974;-70
2022/06/21 09:24:57;;;;;;;;;;;;;;;22.39;24.57;95363.28;5050407;28;19973;-78
2022/06/21 09:27:25;;;;;;;;;;;;;;;22.87;25.01;95376.06;5053927;28;20191;-78
2022/06/21 09:29:50;;;;;;;;;;;;;;;23.21;25.03;95371.38;5056918;28;19928;-63
2022/06/21 09:32:21;;;;;;;;;;;;;;;23.24;24.02;95357.22;5058426;28;19931;-64
2022/06/21 09:34:47;;;;;;;;;;;;;;;23.58;23.67;95354.06;5060481;28;19963;-64
2022/06/21 09:37:18;;;;;;;;;;;;;;;23.46;24.89;95356.22;5055244;28;20481;-63
2022/06/21 09:39:49;;;;;;;;;;;;;;;23.88;23.12;95344.38;5059160;28;19925;-64
2022/06/21 09:42:27;;;;;;;;;;;;;;;23.92;22.60;95369.09;5074573;28;20018;-63
2022/06/21 09:45:04;;;;;;;;;;;;;;;23.71;22.75;95379.09;5051305;28;20530;-64
2022/06/21 09:47:35;;;;;;;;;;;;;;;24.01;22.64;95389.22;5060084;28;20000;-63
2022/06/21 09:50:03;;;;;;;;;;;;;;;24.01;21.92;95404.72;5065995;28;19920;-63
2022/06/21 09:52:37;;;;;;;;;;;;;;;23.92;21.59;95407.13;5082866;28;19945;-64
2022/06/21 09:55:03;;;;;;;;;;;;;;;24.10;22.84;95411.22;5054558;28;19947;-64
2022/06/21 09:57:34;;;;;;;;;;;;;;;24.38;22.30;95414.56;5057646;28;19928;-65
2022/06/21 09:59:59;;;;;;;;;;;;;;;24.72;22.03;95421.31;5063949;28;19917;-62
2022/06/21 10:02:45;;;;;;;;;;;;;;;24.75;21.87;95420.78;5055380;28;19971;-64
2022/06/21 10:05:19;;;;;;;;;;;;;;;24.07;22.88;95425.41;5016171;28;19960;-65
2022/06/21 10:07:45;;;;;;;;;;;;;;;24.53;21.74;95415.63;5059331;28;20016;-63
2022/06/21 10:10:25;;;;;;;;;;;;;;;24.40;22.24;95438.78;5048549;28;19923;-63
2022/06/21 10:12:51;;;;;;;;;;;;;;;24.16;22.68;95441.97;5051280;28;19920;-64
2022/06/21 10:15:19;;;;;;;;;;;;;;;24.60;22.19;95437.94;5051337;28;20338;-65
2022/06/21 10:18:02;;;;;;;;;;;;;;;24.47;22.07;95433.84;5058829;28;20049;-63
2022/06/21 10:20:37;;;;;;;;;;;;;;;24.43;22.18;95427.31;5054570;28;20428;-64
2022/06/21 10:23:22;;;;;;;;;;;;;;;24.55;22.47;95430.59;5066642;28;19961;-64
2022/06/21 10:25:50;;;;;;;;;;;;;;;24.86;21.85;95421.56;5058628;28;19923;-63
2022/06/21 10:28:54;;;;;;;;;;;;;;;24.91;22.14;95423.50;5057900;28;19978;-64
2022/06/21 10:31:28;;;;;;;;;;;;;;;25.62;21.31;95418.06;4960686;28;19927;-60
2022/06/21 10:34:04;;;;;;;;;;;;;;;25.26;21.25;95429.94;4960664;28;19969;-60
2022/06/21 10:36:45;;;;;;;;;;;;;;;25.78;20.53;95418.00;4987870;28;19924;-60
2022/06/21 10:39:29;;;;;;;;;;;;;;;25.70;20.12;95422.13;5055059;28;19968;-64
2022/06/21 10:44:50;;;;;;;;;;;;;;;26.29;20.42;95416.03;5044043;28;20085;-64
2022/06/21 10:47:30;;;;;;;;;;;;;;;26.54;20.73;95416.94;5050237;28;19925;-64
2022/06/21 10:49:58;;;;;;;;;;;;;;;26.41;20.30;95412.94;5059181;28;20385;-64
2022/06/21 10:52:29;;;;;;;;;;;;;;;26.69;20.51;95408.63;5061368;28;19926;-63
2022/06/21 10:54:54;;;;;;;;;;;;;;;26.58;20.37;95401.66;5057090;28;19931;-69
2022/06/21 10:57:19;;;;;;;;;;;;;;;26.81;20.24;95412.91;5047737;28;20209;-68
2022/06/21 11:02:36;;;;;;;;;;;;;;;27.03;19.66;95397.91;5045423;28;19975;-70
2022/06/21 11:05:21;;;;;;;;;;;;;;;27.10;20.11;95396.50;5050490;28;19974;-69
2022/06/21 11:08:01;;;;;;;;;;;;;;;26.86;20.01;95418.28;5055026;28;19974;-69
2022/06/21 11:10:28;;;;;;;;;;;;;;;27.03;19.43;95425.22;5061851;28;20419;-69
2022/06/21 11:13:03;;;;;;;;;;;;;;;26.71;19.49;95414.59;5070569;28;19943;-68
2022/06/21 11:15:38;;;;;;;;;;;;;;;26.77;19.62;95420.00;5048356;28;20286;-69
2022/06/21 11:18:04;;;;;;;;;;;;;;;26.68;19.62;95411.66;5050663;28;19925;-69
2022/06/21 11:20:32;;;;;;;;;;;;;;;26.84;19.24;95398.63;5051774;28;19931;-69
2022/06/21 11:23:01;;;;;;;;;;;;;;;26.84;18.42;95396.75;5048173;28;19961;-70
2022/06/21 11:25:30;;;;;;;;;;;;;;;26.75;19.97;95406.66;5051982;28;20377;-69
2022/06/21 11:28:01;;;;;;;;;;;;;;;26.71;20.81;95398.22;5054152;28;20010;-68
2022/06/21 11:30:29;;;;;;;;;;;;;;;26.64;20.00;95388.75;5057841;28;20314;-68
2022/06/21 11:33:00;;;;;;;;;;;;;;;26.64;20.25;95397.75;5055089;28;19924;-68
2022/06/21 11:35:35;;;;;;;;;;;;;;;26.96;19.01;95384.59;5067483;28;20446;-68
2022/06/21 11:38:00;;;;;;;;;;;;;;;26.54;20.18;95386.91;5050078;28;19936;-68
2022/06/21 11:40:34;;;;;;;;;;;;;;;26.08;20.29;95383.47;5051389;28;19924;-68
2022/06/21 11:43:03;;;;;;;;;;;;;;;26.14;20.16;95378.78;5050692;28;20012;-70
2022/06/21 11:45:44;;;;;;;;;;;;;;;26.02;21.12;95374.53;5067621;28;19966;-69
2022/06/21 11:48:09;;;;;;;;;;;;;;;25.91;20.12;95378.38;5042131;28;19970;-69
2022/06/21 11:50:44;;;;;;;;;;;;;;;25.94;20.96;95375.09;5055226;28;20373;-69
2022/06/21 11:53:22;;;;;;;;;;;;;;;25.90;21.77;95385.75;5038556;28;19993;-68
2022/06/21 11:56:02;;;;;;;;;;;;;;;26.05;20.83;95373.94;5058654;28;19913;-69
2022/06/21 11:58:27;;;;;;;;;;;;;;;26.29;20.13;95375.13;5057702;28;19924;-70
2022/06/21 12:01:05;;;;;;;;;;;;;;;26.52;19.98;95367.28;5051951;28;19928;-68
2022/06/21 12:03:42;;;;;;;;;;;;;;;26.57;20.71;95367.25;5057883;28;20053;-71
2022/06/21 12:06:10;;;;;;;;;;;;;;;26.67;19.85;95353.50;5061978;28;20360;-69
2022/06/21 12:08:43;;;;;;;;;;;;;;;26.59;20.51;95363.16;5044591;28;20352;-70
2022/06/21 12:11:27;;;;;;;;;;;;;;;26.73;17.24;95352.34;5037521;28;20023;-69
2022/06/21 12:14:04;;;;;;;;;;;;;;;26.61;19.46;95341.81;5059745;28;19982;-69
2022/06/21 12:16:35;;;;;;;;;;;;;;;26.42;20.14;95347.19;5051742;28;19920;-69
2022/06/21 12:19:03;;;;;;;;;;;;;;;26.77;19.23;95336.19;5071000;28;19931;-70
2022/06/21 12:21:32;;;;;;;;;;;;;;;26.74;19.87;95339.50;5055462;28;19962;-70
2022/06/21 12:24:08;;;;;;;;;;;;;;;26.79;19.73;95327.72;5034556;28;19916;-69
2022/06/21 12:26:34;;;;;;;;;;;;;;;26.88;20.26;95334.97;5062961;28;19924;-69
2022/06/21 12:28:59;;;;;;;;;;;;;;;26.92;19.60;95326.22;5040564;28;20027;-68
2022/06/21 12:31:34;;;;;;;;;;;;;;;26.86;19.50;95320.00;5070415;28;20289;-70
2022/06/21 12:34:06;;;;;;;;;;;;;;;26.96;21.00;95316.34;5074645;28;20309;-69
2022/06/21 12:36:31;;;;;;;;;;;;;;;27.13;19.71;95318.59;5058081;28;20106;-64
2022/06/21 12:38:58;;;;;;;;;;;;;;;26.88;20.10;95320.50;5041915;28;19958;-64
2022/06/21 12:41:29;;;;;;;;;;;;;;;27.13;20.43;95318.59;5064342;28;19935;-64
2022/06/21 12:43:59;;;;;;;;;;;;;;;26.80;19.58;95321.16;5047735;28;19920;-64
2022/06/21 12:46:30;;;;;;;;;;;;;;;25.90;19.69;95330.41;5058483;28;20342;-63
2022/06/21 12:48:58;;;;;;;;;;;;;;;26.53;20.93;95338.88;5075565;28;19959;-64
2022/06/21 12:51:23;;;;;;;;;;;;;;;27.20;20.05;95331.91;5063641;28;20383;-65
2022/06/21 12:53:52;;;;;;;;;;;;;;;27.34;18.83;95334.72;5053219;28;19924;-64
2022/06/21 12:56:23;;;;;;;;;;;;;;;27.50;19.20;95324.41;5056990;28;19940;-64
2022/06/21 12:58:54;;;;;;;;;;;;;;;28.54;18.45;95323.56;5044179;28;20607;-64
2022/06/21 13:01:25;;;;;;;;;;;;;;;28.56;18.66;95315.06;5054140;28;20079;-64
2022/06/21 13:04:09;;;;;;;;;;;;;;;29.33;18.24;95314.66;5069383;28;19921;-63
2022/06/21 13:06:53;;;;;;;;;;;;;;;29.35;16.87;95309.69;5057121;28;20372;-63
2022/06/21 13:09:22;;;;;;;;;;;;;;;29.71;17.49;95312.75;5054161;28;19930;-63
2022/06/21 13:11:52;;;;;;;;;;;;;;;30.03;16.36;95313.63;5048854;28;20262;-63
2022/06/21 13:14:27;;;;;;;;;;;;;;;29.92;16.44;95308.41;5048309;28;19921;-63
2022/06/21 13:17:13;;;;;;;;;;;;;;;30.39;15.86;95311.94;5074569;28;19920;-63
2022/06/21 13:19:41;;;;;;;;;;;;;;;28.90;17.67;95302.13;5063803;28;19917;-63
2022/06/21 13:22:09;;;;;;;;;;;;;;;29.77;16.71;95319.75;5042697;28;19931;-63
2022/06/21 13:24:44;;;;;;;;;;;;;;;29.92;16.47;95315.81;5061700;28;20015;-63
2022/06/21 13:27:28;;;;;;;;;;;;;;;30.03;16.71;95311.72;5048089;28;20073;-63